Mount Washington, Massachusetts
Current Conditions -  °F | °C
As of 8:54 PM on Saturday 25 Oct 2014 (Local Time) from KPSF Reporting Station
Light Rain Light Rain  
Wind Chill: 55°   Ceiling: 6000
Heat Index: 55°   Visibility: 10mi
Dew Point: 42°   Wind: 9mph
Humidity: 62%   Direction: 210°SSW
Pressure: 29.54"   Gusts: NA
Location:  42.094°N, 73.4662°W
Report Text: KPSF 260054Z AUTO 21008KT 10SM -RA BKN060 OVC080 13/06 A2954 RMK AO2 RAB33 SLP993 P0000 T01280056
Loading
Personal Weather Stations






























Interactive Weather Map
Tropical Storm Tracking
New forecast layout! Learn more

10-Day Weather Forecast

Advertisements
Track Severe Weather on mobile